Time;durP1;ratioP1;P1;durP2;ratioP2;P2;SDS_P1;SDS_P2;PMS_P1;PMS_P2;Temp;Humidity;BMP_temperature;BMP_pressure;BME280_temperature;BME280_humidity;BME280_pressure;Samples;Min_cycle;Max_cycle;Signal;HPM_P1;HPM_P2
2021/01/17 00:01:42;;;;;;;40.10;25.67;;;;;;;-7.20;55.97;99934.63;5046211;28;20056;-71
2021/01/17 00:04:09;;;;;;;44.10;26.67;;;;;;;-7.33;56.55;99928.72;5045440;28;20049;-71
2021/01/17 00:06:35;;;;;;;48.00;26.50;;;;;;;-7.34;56.93;99934.69;5048013;28;20098;-75
2021/01/17 00:09:03;;;;;;;60.10;30.40;;;;;;;-7.37;56.83;99938.97;5047751;28;20094;-72
2021/01/17 00:11:29;;;;;;;58.40;26.67;;;;;;;-7.35;57.07;99940.66;5045484;28;20239;-71
2021/01/17 00:13:56;;;;;;;42.58;24.50;;;;;;;-7.30;57.03;99938.94;5047082;28;20689;-73
2021/01/17 00:16:22;;;;;;;61.70;29.83;;;;;;;-7.20;57.14;99944.91;5048659;28;20045;-71
2021/01/17 00:18:49;;;;;;;34.22;14.02;;;;;;;-7.09;57.51;99956.78;5049137;28;20485;-72
2021/01/17 00:21:15;;;;;;;49.67;26.33;;;;;;;-7.05;57.30;99949.09;5052320;28;20128;-70
2021/01/17 00:23:41;;;;;;;56.83;29.13;;;;;;;-7.16;57.60;99954.28;5054241;28;20404;-70
2021/01/17 00:26:09;;;;;;;54.85;29.33;;;;;;;-7.27;58.36;99953.47;5055722;28;20680;-74
2021/01/17 00:28:35;;;;;;;82.32;43.30;;;;;;;-7.33;58.00;99959.50;5030659;28;20045;-72
2021/01/17 00:31:01;;;;;;;95.88;46.47;;;;;;;-7.32;57.78;99965.47;5049175;28;20056;-69
2021/01/17 00:33:28;;;;;;;62.08;35.05;;;;;;;-7.37;57.69;99960.34;5048802;28;20052;-72
2021/01/17 00:35:54;;;;;;;49.28;29.73;;;;;;;-7.55;57.49;99973.25;5046578;28;20094;-76
2021/01/17 00:38:21;;;;;;;51.08;27.55;;;;;;;-7.61;58.02;99981.81;5048149;28;20105;-72
2021/01/17 00:40:47;;;;;;;47.33;24.60;;;;;;;-7.76;57.60;99980.16;5047221;28;20106;-70
2021/01/17 00:43:14;;;;;;;47.30;28.83;;;;;;;-7.89;57.69;99981.03;5047242;28;20082;-69
2021/01/17 00:45:41;;;;;;;75.40;40.70;;;;;;;-7.91;57.29;99991.28;5047127;28;20065;-69
2021/01/17 00:48:08;;;;;;;75.90;38.53;;;;;;;-8.07;57.66;99994.72;5045766;28;20051;-70
2021/01/17 00:50:34;;;;;;;59.78;37.97;;;;;;;-8.16;56.30;99995.56;5044562;28;20049;-76
2021/01/17 00:53:01;;;;;;;92.55;47.72;;;;;;;-8.32;56.97;100005.00;5044904;28;20538;-71
2021/01/17 00:55:27;;;;;;;84.57;44.00;;;;;;;-8.33;56.12;100000.72;5043980;28;20060;-76
2021/01/17 00:57:54;;;;;;;70.13;30.10;;;;;;;-8.41;56.54;100002.41;5044544;28;20049;-75
2021/01/17 01:00:24;;;;;;;54.53;32.25;;;;;;;-8.43;56.08;100004.16;5045859;28;20064;-75
2021/01/17 01:02:50;;;;;;;53.22;31.48;;;;;;;-8.59;56.03;100008.38;5044645;28;20053;-71
2021/01/17 01:05:17;;;;;;;48.08;30.08;;;;;;;-8.67;56.29;100007.53;5046935;28;20429;-69
2021/01/17 01:07:46;;;;;;;52.42;32.08;;;;;;;-8.80;57.08;100005.78;5046482;28;20063;-71
2021/01/17 01:10:14;;;;;;;108.78;46.50;;;;;;;-8.75;57.12;100010.09;5044394;28;20061;-75
2021/01/17 01:12:41;;;;;;;57.08;29.85;;;;;;;-8.69;56.52;100010.09;5029341;28;20045;-74
2021/01/17 01:15:09;;;;;;;81.22;37.67;;;;;;;-8.73;57.10;100022.88;5044874;28;20660;-71
2021/01/17 01:17:36;;;;;;;46.92;28.40;;;;;;;-8.80;56.88;100023.72;5042864;28;20534;-72
2021/01/17 01:20:04;;;;;;;80.60;40.75;;;;;;;-8.84;57.24;100027.97;5045174;28;20052;-70
2021/01/17 01:22:30;;;;;;;103.13;48.15;;;;;;;-8.80;57.01;100032.25;5028046;28;20049;-73
2021/01/17 01:24:57;;;;;;;55.38;33.35;;;;;;;-8.88;56.93;100029.66;5041109;28;20090;-70
2021/01/17 01:27:23;;;;;;;59.55;37.45;;;;;;;-9.02;57.53;100036.44;5045374;28;20193;-70
2021/01/17 01:29:50;;;;;;;52.42;31.55;;;;;;;-8.98;57.28;100034.75;5044585;28;20049;-69
2021/01/17 01:32:16;;;;;;;50.22;32.60;;;;;;;-9.09;57.40;100040.69;5044010;28;20049;-70
2021/01/17 01:34:43;;;;;;;48.00;26.77;;;;;;;-9.05;57.79;100046.69;5045563;28;20503;-74
2021/01/17 01:37:10;;;;;;;70.95;35.58;;;;;;;-9.00;57.20;100049.25;5045059;28;20045;-71
2021/01/17 01:39:38;;;;;;;46.88;27.63;;;;;;;-8.97;57.06;100050.09;5045045;28;20056;-71
2021/01/17 01:42:05;;;;;;;50.17;31.88;;;;;;;-9.07;57.15;100043.28;5046130;28;20390;-72
2021/01/17 01:44:32;;;;;;;60.25;31.95;;;;;;;-9.11;57.31;100052.63;5044783;28;20045;-70
2021/01/17 01:46:59;;;;;;;51.83;28.45;;;;;;;-9.04;57.69;100056.94;5043541;28;20629;-70
2021/01/17 01:49:26;;;;;;;48.05;30.65;;;;;;;-9.04;57.89;100059.50;5027425;28;20048;-72
2021/01/17 01:51:56;;;;;;;46.78;24.88;;;;;;;-8.96;57.09;100051.00;5043588;28;20049;-69
2021/01/17 01:54:22;;;;;;;50.88;31.52;;;;;;;-8.99;57.48;100061.19;5043730;28;20052;-71
2021/01/17 01:56:52;;;;;;;43.13;26.85;;;;;;;-9.04;56.78;100062.03;5045282;28;20053;-70
2021/01/17 01:59:20;;;;;;;37.53;21.35;;;;;;;-9.06;57.73;100056.03;5046799;28;20049;-72
2021/01/17 02:01:48;;;;;;;47.60;31.13;;;;;;;-9.13;57.12;100058.56;5049420;28;20065;-73
2021/01/17 02:04:14;;;;;;;46.38;27.60;;;;;;;-9.16;57.49;100063.66;5049800;28;20553;-72
2021/01/17 02:06:56;;;;;;;55.05;28.85;;;;;;;-9.18;58.02;100066.25;5047937;28;20061;-71
2021/01/17 02:09:26;;;;;;;44.70;25.60;;;;;;;-9.18;57.50;100071.38;5049938;28;20574;-75
2021/01/17 02:12:22;;;;;;;37.25;25.73;;;;;;;-9.17;57.39;100075.63;5049436;28;20052;-72
2021/01/17 02:14:56;;;;;;;45.05;28.83;;;;;;;-9.23;57.35;100071.31;4966669;28;20054;-71
2021/01/17 02:17:29;;;;;;;49.55;29.27;;;;;;;-9.26;57.48;100078.13;4967740;28;20043;-72
2021/01/17 02:20:11;;;;;;;57.80;33.03;;;;;;;-9.30;57.94;100087.50;4966914;28;20057;-71
2021/01/17 02:22:48;;;;;;;44.97;26.08;;;;;;;-9.24;57.81;100087.53;4967594;28;20050;-72
2021/01/17 02:25:16;;;;;;;16.80;10.77;;;;;;;-9.15;57.58;100084.16;4967976;28;20688;-70
2021/01/17 02:27:45;;;;;;;25.52;13.23;;;;;;;-8.96;57.45;100086.81;4967632;28;20065;-70
2021/01/17 02:30:13;;;;;;;28.98;14.30;;;;;;;-8.89;56.59;100094.50;4968113;28;20170;-71
2021/01/17 02:32:46;;;;;;;27.67;14.20;;;;;;;-8.82;56.60;100092.84;4968415;28;20222;-79
2021/01/17 02:35:14;;;;;;;22.23;13.82;;;;;;;-8.83;57.20;100091.13;4967613;28;20078;-73
2021/01/17 02:37:48;;;;;;;41.53;18.83;;;;;;;-8.82;57.34;100099.66;4967738;28;20178;-79
2021/01/17 02:40:41;;;;;;;28.35;14.30;;;;;;;-8.79;56.94;100095.38;4967953;28;20042;-70
2021/01/17 02:43:08;;;;;;;33.20;17.33;;;;;;;-8.89;56.79;100099.63;4967568;28;20047;-70
2021/01/17 02:45:35;;;;;;;42.38;23.98;;;;;;;-8.93;56.57;100099.59;4966778;28;20453;-70
2021/01/17 02:48:02;;;;;;;54.03;31.85;;;;;;;-9.05;55.89;100096.16;4967533;28;20043;-73
2021/01/17 02:50:29;;;;;;;52.17;32.60;;;;;;;-9.18;56.18;100107.19;5007167;28;20097;-76
2021/01/17 02:52:59;;;;;;;27.23;12.68;;;;;;;-9.10;56.58;100099.53;5047167;28;20049;-74
2021/01/17 02:55:30;;;;;;;21.05;12.70;;;;;;;-8.97;56.21;100095.31;5049305;28;20052;-73
2021/01/17 02:58:00;;;;;;;22.23;10.27;;;;;;;-8.90;56.00;100102.19;5048020;28;20708;-69
2021/01/17 03:00:29;;;;;;;7.30;3.90;;;;;;;-8.85;56.22;100110.75;5049014;28;20114;-70
2021/01/17 03:02:57;;;;;;;41.67;23.67;;;;;;;-8.93;55.89;100113.28;5049395;28;20062;-70
2021/01/17 03:05:25;;;;;;;25.90;11.63;;;;;;;-8.94;56.25;100103.88;5048697;28;20124;-71
2021/01/17 03:07:53;;;;;;;19.52;11.15;;;;;;;-8.86;56.41;100106.44;5049926;28;20045;-72
2021/01/17 03:10:21;;;;;;;18.65;9.77;;;;;;;-8.83;55.90;100106.47;5048871;28;20064;-70
2021/01/17 03:12:49;;;;;;;23.42;13.02;;;;;;;-8.82;56.17;100109.88;5047530;28;20113;-74
2021/01/17 03:15:17;;;;;;;49.50;24.83;;;;;;;-8.83;56.37;100103.91;5048545;28;20044;-70
2021/01/17 03:17:44;;;;;;;10.05;4.60;;;;;;;-8.86;55.77;100111.56;5048429;28;20045;-70
2021/01/17 03:20:10;;;;;;;20.85;9.32;;;;;;;-8.89;55.77;100107.31;5048275;28;20076;-71
2021/01/17 03:22:37;;;;;;;41.35;19.58;;;;;;;-8.88;55.70;100113.28;5047573;28;20051;-73
2021/01/17 03:25:05;;;;;;;20.60;10.40;;;;;;;-8.91;56.05;100105.56;5046240;28;20049;-70
2021/01/17 03:27:31;;;;;;;27.58;12.40;;;;;;;-8.89;55.79;100114.13;5048272;28;20143;-69
2021/01/17 03:29:58;;;;;;;15.52;10.38;;;;;;;-8.91;56.05;100116.69;5048084;28;20132;-69
2021/01/17 03:32:25;;;;;;;44.10;24.58;;;;;;;-9.02;55.30;100118.31;5048524;28;20361;-73
2021/01/17 03:34:51;;;;;;;29.35;14.48;;;;;;;-8.99;55.86;100123.47;5048672;28;20160;-71
2021/01/17 03:37:18;;;;;;;39.72;26.45;;;;;;;-9.12;55.74;100132.78;5048976;28;20456;-70
2021/01/17 03:39:45;;;;;;;40.38;22.95;;;;;;;-9.25;55.99;100126.75;5047045;28;20060;-70
2021/01/17 03:42:12;;;;;;;12.77;9.70;;;;;;;-9.26;55.71;100129.28;5047781;28;20056;-70
2021/01/17 03:44:39;;;;;;;13.73;8.27;;;;;;;-9.20;55.68;100134.47;5047850;28;20060;-71
2021/01/17 03:47:08;;;;;;;36.28;20.30;;;;;;;-9.24;55.93;100128.47;5048851;28;20154;-75
2021/01/17 03:49:34;;;;;;;36.88;22.08;;;;;;;-9.32;55.54;100134.38;5048568;28;20049;-70
2021/01/17 03:52:00;;;;;;;36.53;21.35;;;;;;;-9.46;55.47;100129.16;5048128;28;20049;-70
2021/01/17 03:54:27;;;;;;;46.17;27.70;;;;;;;-9.53;56.35;100146.16;5046475;28;20045;-74
2021/01/17 03:56:54;;;;;;;38.40;23.60;;;;;;;-9.67;56.24;100140.97;5046878;28;20595;-70
2021/01/17 03:59:20;;;;;;;40.03;18.80;;;;;;;-9.67;56.25;100134.97;5047094;28;20135;-71
2021/01/17 04:01:47;;;;;;;38.20;21.98;;;;;;;-9.65;56.66;100131.59;5047444;28;20048;-73
2021/01/17 04:04:14;;;;;;;38.25;18.92;;;;;;;-9.67;56.15;100143.50;5047714;28;20064;-71
2021/01/17 04:06:41;;;;;;;30.85;17.50;;;;;;;-9.65;56.09;100143.50;5047559;28;20370;-73
2021/01/17 04:09:08;;;;;;;35.40;19.98;;;;;;;-9.80;56.11;100141.69;5047597;28;20134;-69
2021/01/17 04:11:35;;;;;;;35.22;18.33;;;;;;;-9.82;56.51;100151.03;5047103;28;20106;-69
2021/01/17 04:14:01;;;;;;;37.35;19.70;;;;;;;-9.72;56.37;100149.41;5047243;28;20049;-69
2021/01/17 04:16:28;;;;;;;33.20;20.88;;;;;;;-9.67;56.15;100147.75;5047357;28;20056;-75
2021/01/17 04:18:54;;;;;;;39.70;24.52;;;;;;;-9.67;56.47;100148.63;5047540;28;20075;-70
2021/01/17 04:21:21;;;;;;;36.35;19.27;;;;;;;-9.70;56.27;100152.84;5047076;28;20618;-71
2021/01/17 04:23:48;;;;;;;41.72;23.52;;;;;;;-9.80;56.51;100155.31;5045243;28;20049;-70
2021/01/17 04:26:17;;;;;;;34.08;22.00;;;;;;;-9.87;56.49;100156.09;5046746;28;20114;-69
2021/01/17 04:28:44;;;;;;;40.70;23.63;;;;;;;-9.92;56.76;100156.91;5047023;28;20065;-69
2021/01/17 04:31:10;;;;;;;31.35;19.17;;;;;;;-9.88;56.96;100154.41;5047620;28;20052;-72
2021/01/17 04:33:36;;;;;;;45.28;24.02;;;;;;;-9.89;56.50;100156.94;5047324;28;20051;-73
2021/01/17 04:36:04;;;;;;;25.38;13.07;;;;;;;-9.78;56.45;100160.44;5046788;28;20056;-70
2021/01/17 04:38:31;;;;;;;26.35;16.75;;;;;;;-9.82;56.65;100157.00;5046489;28;20053;-69
2021/01/17 04:41:02;;;;;;;19.95;9.00;;;;;;;-9.73;56.58;100169.00;5046871;28;20045;-71
2021/01/17 04:43:31;;;;;;;35.58;20.98;;;;;;;-9.74;56.16;100169.88;5047315;28;20049;-73
2021/01/17 04:45:59;;;;;;;23.60;9.98;;;;;;;-9.57;56.73;100174.25;5047285;28;20090;-71
2021/01/17 04:48:27;;;;;;;19.77;11.95;;;;;;;-9.51;56.51;100175.13;5046462;28;20049;-70
2021/01/17 04:51:00;;;;;;;23.23;8.43;;;;;;;-9.46;56.65;100186.25;5047393;28;20056;-69
2021/01/17 04:53:28;;;;;;;32.38;13.07;;;;;;;-9.44;56.76;100191.41;5048620;28;20051;-71
2021/01/17 04:56:10;;;;;;;14.68;6.63;;;;;;;-9.42;56.10;100190.59;5047284;28;20053;-71
2021/01/17 04:58:44;;;;;;;32.95;13.30;;;;;;;-9.36;56.28;100194.00;5049354;28;20148;-68
2021/01/17 05:01:21;;;;;;;37.35;21.05;;;;;;;-9.53;56.16;100192.19;5047658;28;20139;-72
2021/01/17 05:03:57;;;;;;;38.70;22.23;;;;;;;-9.63;56.12;100196.38;5047230;28;20044;-70
2021/01/17 05:06:27;;;;;;;22.60;11.57;;;;;;;-9.53;56.39;100197.28;5046527;28;20041;-69
2021/01/17 05:08:59;;;;;;;41.78;21.02;;;;;;;-9.44;56.59;100197.34;5046912;28;20167;-73
2021/01/17 05:11:35;;;;;;;52.20;28.60;;;;;;;-9.45;56.13;100190.53;5046325;28;20130;-69
2021/01/17 05:14:10;;;;;;;53.33;28.55;;;;;;;-9.45;56.62;100197.38;5046855;28;20049;-72
2021/01/17 05:16:38;;;;;;;11.35;8.18;;;;;;;-9.37;56.16;100197.44;5047028;28;20045;-75
2021/01/17 05:19:05;;;;;;;18.45;8.48;;;;;;;-9.28;56.21;100197.50;5047723;28;20040;-70
2021/01/17 05:21:35;;;;;;;20.38;11.32;;;;;;;-9.18;56.30;100196.72;5046579;28;20098;-69
2021/01/17 05:24:09;;;;;;;25.08;11.35;;;;;;;-9.14;56.07;100201.00;5044964;28;20045;-71
2021/01/17 05:26:40;;;;;;;8.80;6.72;;;;;;;-9.19;56.17;100194.16;5046553;28;20044;-73
2021/01/17 05:29:07;;;;;;;22.13;12.82;;;;;;;-9.19;56.67;100201.81;5046992;28;20049;-71
2021/01/17 05:31:34;;;;;;;27.95;13.07;;;;;;;-9.15;56.29;100199.28;5045633;28;20052;-70
2021/01/17 05:34:00;;;;;;;21.33;9.05;;;;;;;-9.06;56.15;100201.03;5044778;28;20144;-70
2021/01/17 05:36:27;;;;;;;14.73;10.35;;;;;;;-9.11;56.21;100195.03;5058505;28;20075;-70
2021/01/17 05:39:01;;;;;;;19.98;9.70;;;;;;;-9.26;56.55;100199.19;5057174;28;20040;-71
2021/01/17 05:41:27;;;;;;;16.67;9.15;;;;;;;-9.32;56.66;100208.53;5057323;28;20105;-70
2021/01/17 05:43:55;;;;;;;31.67;12.60;;;;;;;-9.38;56.73;100205.94;5058057;28;20049;-70
2021/01/17 05:46:21;;;;;;;17.73;7.72;;;;;;;-9.51;56.52;100195.59;5057094;28;20131;-69
2021/01/17 05:48:48;;;;;;;16.25;6.55;;;;;;;-9.54;56.79;100200.72;5060062;28;20045;-71
2021/01/17 05:51:27;;;;;;;21.45;11.15;;;;;;;-9.55;56.46;100196.41;5061735;28;20053;-71
2021/01/17 05:53:55;;;;;;;22.73;9.50;;;;;;;-9.53;57.10;100199.84;5060233;28;20120;-70
2021/01/17 05:56:24;;;;;;;25.67;8.95;;;;;;;-9.50;56.59;100212.66;5060602;28;20049;-73
2021/01/17 05:58:50;;;;;;;38.70;10.70;;;;;;;-9.52;56.79;100214.34;5059594;28;20098;-70
2021/01/17 06:01:19;;;;;;;24.58;8.10;;;;;;;-9.50;56.78;100211.81;5070349;28;20076;-75
2021/01/17 06:03:50;;;;;;;30.50;12.43;;;;;;;-9.53;56.98;100210.06;5071742;28;20096;-70
2021/01/17 06:06:25;;;;;;;11.40;5.85;;;;;;;-9.50;56.64;100211.81;5071511;28;20166;-75
2021/01/17 06:08:54;;;;;;;17.15;8.25;;;;;;;-9.49;56.54;100218.63;5070003;28;20031;-79
2021/01/17 06:11:22;;;;;;;20.45;12.10;;;;;;;-9.49;57.00;100224.63;5061814;28;20045;-72
2021/01/17 06:13:55;;;;;;;35.03;14.95;;;;;;;-9.46;57.28;100229.72;5062829;28;20043;-72
2021/01/17 06:16:24;;;;;;;36.08;14.95;;;;;;;-9.38;56.94;100234.06;5062918;28;20052;-70
2021/01/17 06:18:55;;;;;;;27.67;14.18;;;;;;;-9.35;57.04;100239.22;5059804;28;20097;-71
2021/01/17 06:21:23;;;;;;;34.33;16.88;;;;;;;-9.37;56.74;100240.91;5059067;28;20497;-69
2021/01/17 06:23:55;;;;;;;27.65;12.80;;;;;;;-9.34;56.62;100256.28;5050011;28;20049;-70
2021/01/17 06:26:26;;;;;;;26.25;11.98;;;;;;;-9.26;56.21;100252.91;5048139;28;20049;-71
2021/01/17 06:28:54;;;;;;;22.58;10.68;;;;;;;-9.21;55.98;100255.53;5048559;28;20048;-70
2021/01/17 06:31:29;;;;;;;21.10;12.07;;;;;;;-9.23;56.51;100257.22;5046877;28;20641;-69
2021/01/17 06:34:07;;;;;;;22.95;11.90;;;;;;;-9.30;56.58;100265.69;5046702;28;20041;-72
2021/01/17 06:36:34;;;;;;;23.60;9.75;;;;;;;-9.36;56.27;100266.50;5046916;28;20106;-70
2021/01/17 06:39:01;;;;;;;30.75;11.18;;;;;;;-9.40;56.94;100269.00;5047188;28;20060;-69
2021/01/17 06:41:34;;;;;;;20.05;10.85;;;;;;;-9.39;56.70;100276.69;5046136;28;20102;-73
2021/01/17 06:44:08;;;;;;;25.27;10.60;;;;;;;-9.42;56.83;100285.19;5048955;28;20049;-71
2021/01/17 06:46:43;;;;;;;19.35;11.75;;;;;;;-9.47;57.23;100288.53;5051568;28;20045;-70
2021/01/17 06:49:21;;;;;;;29.40;9.52;;;;;;;-9.45;56.96;100291.97;5050534;28;20065;-70
2021/01/17 06:51:48;;;;;;;18.42;9.05;;;;;;;-9.45;56.40;100297.94;5050080;28;20477;-72
2021/01/17 06:54:17;;;;;;;21.88;11.23;;;;;;;-9.42;56.65;100303.09;5047927;28;20651;-71
2021/01/17 06:56:46;;;;;;;23.52;14.30;;;;;;;-9.38;56.91;100308.22;5049001;28;20051;-72
2021/01/17 06:59:28;;;;;;;28.40;12.90;;;;;;;-9.31;56.43;100316.00;5048525;28;20138;-72
2021/01/17 07:02:23;;;;;;;30.67;14.52;;;;;;;-9.14;56.83;100312.72;5047908;28;20126;-70
2021/01/17 07:05:18;;;;;;;14.25;8.10;;;;;;;-9.07;56.14;100317.91;5050171;28;20059;-70
2021/01/17 07:08:02;;;;;;;21.48;6.22;;;;;;;-9.07;56.37;100319.59;4966633;28;20260;-69
2021/01/17 07:10:38;;;;;;;22.38;15.38;;;;;;;-9.07;56.59;100320.44;4966162;28;20061;-71
2021/01/17 07:13:06;;;;;;;29.35;14.38;;;;;;;-9.06;56.57;100327.28;4967604;28;20100;-70
2021/01/17 07:15:34;;;;;;;33.20;13.70;;;;;;;-9.01;56.09;100329.03;4966566;28;20108;-71
2021/01/17 07:18:03;;;;;;;52.88;23.60;;;;;;;-8.91;56.40;100335.91;4965962;28;20130;-70
2021/01/17 07:20:31;;;;;;;36.10;16.05;;;;;;;-8.86;56.12;100330.00;4967821;28;20054;-73
2021/01/17 07:22:59;;;;;;;34.88;18.27;;;;;;;-8.85;55.95;100343.66;4965939;28;20649;-71
2021/01/17 07:25:26;;;;;;;39.25;19.95;;;;;;;-8.87;55.87;100340.25;4964058;28;20751;-70
2021/01/17 07:28:08;;;;;;;34.28;17.08;;;;;;;-8.84;55.74;100337.69;4966205;28;20081;-70
2021/01/17 07:30:48;;;;;;;23.17;11.20;;;;;;;-8.93;56.00;100337.59;4965293;28;20517;-72
2021/01/17 07:33:17;;;;;;;22.15;16.42;;;;;;;-9.05;56.33;100349.47;4967938;28;20055;-69
2021/01/17 07:35:45;;;;;;;34.95;18.73;;;;;;;-8.99;56.42;100345.25;4965429;28;20050;-71
2021/01/17 07:38:17;;;;;;;52.15;22.02;;;;;;;-8.87;56.04;100347.91;4965190;28;20191;-71
2021/01/17 07:40:50;;;;;;;33.50;15.90;;;;;;;-8.80;56.18;100352.25;4965548;28;20042;-71
2021/01/17 07:43:18;;;;;;;37.25;15.85;;;;;;;-8.63;55.60;100351.50;4965448;28;20047;-73
2021/01/17 07:45:44;;;;;;;26.08;12.02;;;;;;;-8.49;55.71;100347.34;5040391;28;20595;-72
2021/01/17 07:48:12;;;;;;;29.33;17.13;;;;;;;-8.40;55.19;100349.91;5048515;28;20049;-71
2021/01/17 07:50:42;;;;;;;31.05;16.85;;;;;;;-8.46;55.67;100358.47;5048236;28;20051;-70
2021/01/17 07:53:18;;;;;;;26.33;13.15;;;;;;;-8.61;55.52;100357.50;5045371;28;20110;-71
2021/01/17 07:55:45;;;;;;;25.48;11.27;;;;;;;-8.56;55.78;100348.16;5046842;28;20448;-77
2021/01/17 07:58:12;;;;;;;30.75;14.73;;;;;;;-8.57;55.46;100342.16;5046361;28;20045;-72
2021/01/17 08:00:39;;;;;;;25.65;11.55;;;;;;;-8.58;55.62;100348.13;5046858;28;20045;-71
2021/01/17 08:03:07;;;;;;;28.15;10.23;;;;;;;-8.59;55.97;100356.63;5047642;28;20053;-70
2021/01/17 08:05:51;;;;;;;24.95;12.13;;;;;;;-8.54;56.00;100357.53;5045840;28;20135;-71
2021/01/17 08:08:48;;;;;;;18.02;10.35;;;;;;;-8.38;55.78;100350.78;5046757;28;20052;-72
2021/01/17 08:11:41;;;;;;;20.60;8.93;;;;;;;-8.44;55.37;100357.59;5046893;28;20496;-71
2021/01/17 08:14:21;;;;;;;25.85;11.80;;;;;;;-8.54;55.92;100356.69;5049405;28;20057;-70
2021/01/17 08:17:05;;;;;;;24.58;14.07;;;;;;;-8.56;55.48;100368.63;5050885;28;20048;-79
2021/01/17 08:19:37;;;;;;;33.22;15.70;;;;;;;-8.50;55.34;100368.66;5050313;28;20132;-79
2021/01/17 08:22:43;;;;;;;33.53;17.73;;;;;;;-8.41;55.44;100373.81;5052761;28;20045;-76
2021/01/17 08:25:14;;;;;;;29.05;13.63;;;;;;;-8.35;55.23;100390.94;4965127;28;20738;-70
2021/01/17 08:27:42;;;;;;;30.75;12.63;;;;;;;-8.30;55.25;100394.38;4963326;28;20047;-73
2021/01/17 08:30:20;;;;;;;32.10;16.00;;;;;;;-8.19;55.17;100394.44;4963834;28;20050;-73
2021/01/17 08:32:48;;;;;;;37.22;16.80;;;;;;;-8.10;54.73;100395.38;4963794;28;20439;-70
2021/01/17 08:35:34;;;;;;;24.25;12.15;;;;;;;-8.00;54.91;100403.09;4963738;28;20047;-73
2021/01/17 08:38:16;;;;;;;;;;;;;;;-7.89;54.75;100402.34;4966267;28;20054;-73
2021/01/17 08:40:47;;;;;;;19.30;12.60;;;;;;;-7.94;54.89;100406.56;4963271;28;20628;-74
2021/01/17 08:43:15;;;;;;;26.75;14.07;;;;;;;-7.77;54.41;100419.47;4964175;28;20179;-76
2021/01/17 08:45:42;;;;;;;26.42;12.80;;;;;;;-7.58;54.52;100419.53;4965705;28;20047;-72
2021/01/17 08:48:25;;;;;;;58.40;20.35;;;;;;;-7.27;53.72;100419.66;4964777;28;20042;-74
2021/01/17 08:50:55;;;;;;;45.33;22.75;;;;;;;-7.25;53.06;100433.38;4962814;28;20672;-71
2021/01/17 08:53:30;;;;;;;57.10;31.23;;;;;;;-7.33;52.38;100425.63;4962455;28;20221;-71
2021/01/17 08:56:19;;;;;;;50.70;23.13;;;;;;;-7.52;51.71;100430.69;4962917;28;20058;-73
2021/01/17 08:58:47;;;;;;;56.42;27.42;;;;;;;-7.56;51.65;100443.47;4963429;28;20054;-75
2021/01/17 09:01:15;;;;;;;47.13;25.98;;;;;;;-7.65;51.45;100441.75;4981171;28;20449;-70
2021/01/17 09:04:01;;;;;;;58.35;31.33;;;;;;;-7.86;51.21;100449.34;5026935;28;20061;-73
2021/01/17 09:06:30;;;;;;;43.85;21.90;;;;;;;-7.94;51.36;100439.03;5025466;28;20045;-71
2021/01/17 09:09:18;;;;;;;50.50;25.67;;;;;;;-7.91;51.33;100452.72;5026956;28;20049;-70
2021/01/17 09:11:46;;;;;;;56.55;30.83;;;;;;;-7.96;51.10;100451.84;4965319;28;20054;-71
2021/01/17 09:14:24;;;;;;;50.65;23.40;;;;;;;-8.02;50.79;100461.19;4972674;28;20047;-72
2021/01/17 09:16:53;;;;;;;43.83;22.25;;;;;;;-8.00;51.02;100457.78;4968353;28;20050;-70
2021/01/17 09:19:21;;;;;;;48.92;24.02;;;;;;;-7.90;51.21;100458.72;4968928;28;20580;-71
2021/01/17 09:21:51;;;;;;;53.17;27.40;;;;;;;-7.86;50.85;100460.44;4970782;28;20047;-72
2021/01/17 09:24:19;;;;;;;49.15;26.65;;;;;;;-7.84;50.49;100463.03;4966207;28;20049;-73
2021/01/17 09:26:48;;;;;;;51.42;31.75;;;;;;;-7.82;50.62;100469.88;4965520;28;20057;-76
2021/01/17 09:29:36;;;;;;;59.55;32.88;;;;;;;-7.94;50.68;100467.22;4964898;28;20432;-72
2021/01/17 09:32:08;;;;;;;54.17;25.92;;;;;;;-7.88;51.38;100468.13;4907980;29;20058;-74
2021/01/17 09:34:36;;;;;;;53.88;28.55;;;;;;;-7.76;51.08;100464.78;4907002;29;20054;-70
2021/01/17 09:37:07;;;;;;;68.65;28.25;;;;;;;-7.55;51.05;100479.41;4903530;29;20052;-76
2021/01/17 09:39:36;;;;;;;76.45;37.67;;;;;;;-7.52;50.66;100482.00;4905894;29;20052;-69
2021/01/17 09:42:06;;;;;;;62.88;35.13;;;;;;;-7.65;50.34;100481.91;4908091;29;20048;-71
2021/01/17 09:44:35;;;;;;;41.33;21.17;;;;;;;-7.57;50.44;100478.56;4906908;29;20044;-71
2021/01/17 09:47:02;;;;;;;54.63;29.40;;;;;;;-7.49;50.33;100483.72;4914155;29;20086;-71
2021/01/17 09:49:30;;;;;;;65.30;33.60;;;;;;;-7.47;50.15;100478.59;4957302;28;20051;-73
2021/01/17 09:51:57;;;;;;;47.53;25.80;;;;;;;-7.49;50.09;100476.00;4961930;28;20054;-71
2021/01/17 09:54:24;;;;;;;53.53;25.67;;;;;;;-7.38;50.06;100481.19;4963807;28;20178;-71
2021/01/17 09:56:50;;;;;;;72.45;31.45;;;;;;;-7.28;50.09;100479.53;4963944;28;20066;-70
2021/01/17 09:59:21;;;;;;;50.15;27.27;;;;;;;-7.35;50.23;100489.75;4963741;28;20057;-72
2021/01/17 10:01:48;;;;;;;44.72;22.33;;;;;;;-7.46;49.80;100488.88;4964498;28;20105;-75
2021/01/17 10:04:23;;;;;;;50.42;23.90;;;;;;;-7.33;49.92;100488.09;4963427;28;20162;-72
2021/01/17 10:06:52;;;;;;;60.08;29.17;;;;;;;-7.21;50.29;100494.97;4962137;28;20043;-71
2021/01/17 10:09:19;;;;;;;72.72;33.92;;;;;;;-7.23;50.17;100499.25;5016013;28;20091;-71
2021/01/17 10:11:52;;;;;;;55.50;29.75;;;;;;;-7.21;49.78;100505.22;5043516;28;20136;-76
2021/01/17 10:14:23;;;;;;;54.30;26.67;;;;;;;-7.23;49.47;100504.38;5042604;28;20041;-70
2021/01/17 10:16:50;;;;;;;64.38;31.13;;;;;;;-7.25;49.71;100500.09;5044062;28;20045;-71
2021/01/17 10:19:18;;;;;;;59.00;30.33;;;;;;;-7.26;50.07;100504.34;5046484;28;20055;-78
2021/01/17 10:21:46;;;;;;;61.58;32.38;;;;;;;-7.27;49.52;100505.22;5046709;28;20710;-69
2021/01/17 10:24:20;;;;;;;64.78;32.00;;;;;;;-7.22;50.08;100508.66;5049976;28;20083;-69
2021/01/17 10:26:52;;;;;;;65.55;35.50;;;;;;;-7.29;49.76;100504.34;5050043;28;20107;-72
2021/01/17 10:29:20;;;;;;;59.88;29.85;;;;;;;-7.35;49.95;100512.84;5048813;28;20044;-70
2021/01/17 10:31:53;;;;;;;55.40;31.48;;;;;;;-7.23;49.88;100513.78;5047579;28;20052;-72
2021/01/17 10:34:24;;;;;;;52.15;28.25;;;;;;;-7.40;49.24;100514.56;5047497;28;20045;-71
2021/01/17 10:36:56;;;;;;;50.97;28.38;;;;;;;-7.46;49.67;100513.66;5007209;28;20076;-71
2021/01/17 10:39:24;;;;;;;57.97;32.63;;;;;;;-7.45;49.79;100523.06;5042508;28;20045;-72
2021/01/17 10:41:52;;;;;;;50.03;26.48;;;;;;;-7.49;49.79;100524.75;5040004;28;20106;-70
2021/01/17 10:44:25;;;;;;;53.58;25.77;;;;;;;-7.38;50.11;100517.13;5042964;28;20539;-71
2021/01/17 10:47:02;;;;;;;54.55;28.13;;;;;;;-7.24;49.72;100515.47;5010975;28;20056;-73
2021/01/17 10:49:34;;;;;;;81.13;33.42;;;;;;;-7.16;49.37;100513.81;5040823;28;20120;-70
2021/01/17 10:52:13;;;;;;;77.80;43.30;;;;;;;-7.17;49.65;100516.38;5047057;28;20678;-71
2021/01/17 10:54:42;;;;;;;51.85;29.48;;;;;;;-7.04;49.43;100527.53;5045662;28;20087;-70
2021/01/17 10:57:10;;;;;;;57.95;30.40;;;;;;;-6.96;49.35;100534.41;5046824;28;20045;-71
2021/01/17 10:59:38;;;;;;;65.15;35.92;;;;;;;-7.26;48.83;100540.28;5047129;28;20067;-75
2021/01/17 11:02:07;;;;;;;57.72;30.92;;;;;;;-7.37;49.18;100542.78;5044334;28;20110;-79
2021/01/17 11:04:40;;;;;;;65.93;36.20;;;;;;;-7.29;49.66;100540.28;5044423;28;20282;-70
2021/01/17 11:07:07;;;;;;;58.88;28.77;;;;;;;-7.24;49.65;100536.00;5046880;28;20056;-71
2021/01/17 11:09:34;;;;;;;54.22;28.52;;;;;;;-7.33;49.93;100534.28;5045554;28;20052;-73
2021/01/17 11:12:02;;;;;;;55.85;29.90;;;;;;;-7.21;49.86;100537.75;5045488;28;20049;-78
2021/01/17 11:14:31;;;;;;;50.13;25.58;;;;;;;-7.23;49.39;100535.16;5044029;28;20049;-72
2021/01/17 11:16:59;;;;;;;60.38;31.95;;;;;;;-7.12;49.55;100536.06;5044384;28;20053;-71
2021/01/17 11:19:38;;;;;;;63.97;30.55;;;;;;;-7.08;49.36;100536.94;5044170;28;20049;-71
2021/01/17 11:22:06;;;;;;;58.45;30.45;;;;;;;-7.07;49.12;100532.69;5043478;28;20045;-80
2021/01/17 11:24:38;;;;;;;54.90;33.30;;;;;;;-7.06;49.51;100537.78;5042552;28;20041;-69
2021/01/17 11:27:09;;;;;;;59.03;34.40;;;;;;;-7.16;49.17;100536.06;5026348;28;20041;-77